Branford, Florida
Current Conditions -  °F | °C
As of 6:15 PM on Saturday 25 Oct 2014 (Local Time) from K24J Reporting Station
Clear Clear  
Wind Chill: 77°   Ceiling: Unl
Heat Index: 78°   Visibility: 1.2mi
Dew Point: 52°   Wind: 0mph
Humidity: 41%   Direction: NA
Pressure: 29.99"   Gusts: NA
Location:  29.96°N, 82.93°W
Report Text: K24J 252215Z AUTO 00000KT 1 1/4SM CLR 25/11 A2999 RMK AO1
Loading
Personal Weather Stations






























Interactive Weather Map
Tropical Storm Tracking
New forecast layout! Learn more

10-Day Weather Forecast

Advertisements
Track Severe Weather on mobile